sensor_id;sensor_type;location;lat;lon;timestamp;pressure;altitude;pressure_sealevel;temperature;humidity
8051;BME280;4068;42.158;24.732;2023-04-04T00:01:04;98347.03;;;9.87;100.00
8051;BME280;4068;42.158;24.732;2023-04-04T00:03:30;98347.03;;;9.87;100.00
8051;BME280;4068;42.158;24.732;2023-04-04T00:05:55;98333.81;;;9.87;100.00
8051;BME280;4068;42.158;24.732;2023-04-04T00:08:21;98319.59;;;9.88;100.00
8051;BME280;4068;42.158;24.732;2023-04-04T00:10:47;98320.00;;;9.93;100.00
8051;BME280;4068;42.158;24.732;2023-04-04T00:13:12;98291.06;;;9.82;100.00
8051;BME280;4068;42.158;24.732;2023-04-04T00:15:38;98296.00;;;9.95;100.00
8051;BME280;4068;42.158;24.732;2023-04-04T00:18:03;98307.94;;;9.99;100.00
8051;BME280;4068;42.158;24.732;2023-04-04T00:20:29;98302.78;;;9.97;100.00
8051;BME280;4068;42.158;24.732;2023-04-04T00:22:55;98303.25;;;9.93;100.00
8051;BME280;4068;42.158;24.732;2023-04-04T00:25:22;98305.75;;;9.94;100.00
8051;BME280;4068;42.158;24.732;2023-04-04T00:27:47;98295.00;;;9.96;100.00
8051;BME280;4068;42.158;24.732;2023-04-04T00:30:13;98292.66;;;9.93;100.00
8051;BME280;4068;42.158;24.732;2023-04-04T00:32:38;98286.06;;;9.97;100.00
8051;BME280;4068;42.158;24.732;2023-04-04T00:35:04;98282.47;;;9.98;100.00
8051;BME280;4068;42.158;24.732;2023-04-04T00:37:29;98285.09;;;9.98;100.00
8051;BME280;4068;42.158;24.732;2023-04-04T00:39:55;98288.88;;;9.95;100.00
8051;BME280;4068;42.158;24.732;2023-04-04T00:42:21;98276.53;;;9.86;100.00
8051;BME280;4068;42.158;24.732;2023-04-04T00:44:46;98274.81;;;9.95;100.00
8051;BME280;4068;42.158;24.732;2023-04-04T00:47:12;98266.53;;;9.80;100.00
8051;BME280;4068;42.158;24.732;2023-04-04T00:49:37;98251.78;;;9.77;100.00
8051;BME280;4068;42.158;24.732;2023-04-04T00:52:03;98280.88;;;10.05;100.00
8051;BME280;4068;42.158;24.732;2023-04-04T00:54:31;98287.28;;;10.02;100.00
8051;BME280;4068;42.158;24.732;2023-04-04T00:56:57;98278.69;;;10.00;100.00
8051;BME280;4068;42.158;24.732;2023-04-04T00:59:25;98286.63;;;10.00;100.00
8051;BME280;4068;42.158;24.732;2023-04-04T01:01:51;98286.63;;;10.00;100.00
8051;BME280;4068;42.158;24.732;2023-04-04T01:04:17;98285.69;;;10.10;100.00
8051;BME280;4068;42.158;24.732;2023-04-04T01:06:43;98243.31;;;9.92;100.00
8051;BME280;4068;42.158;24.732;2023-04-04T01:09:10;98268.59;;;10.04;100.00
8051;BME280;4068;42.158;24.732;2023-04-04T01:11:36;98262.31;;;10.05;100.00
8051;BME280;4068;42.158;24.732;2023-04-04T01:14:02;98274.28;;;10.09;100.00
8051;BME280;4068;42.158;24.732;2023-04-04T01:16:27;98260.72;;;10.12;100.00
8051;BME280;4068;42.158;24.732;2023-04-04T01:18:53;98258.41;;;10.09;100.00
8051;BME280;4068;42.158;24.732;2023-04-04T01:21:21;98266.34;;;10.09;100.00
8051;BME280;4068;42.158;24.732;2023-04-04T01:26:12;98269.81;;;10.10;100.00
8051;BME280;4068;42.158;24.732;2023-04-04T01:28:38;98241.72;;;9.99;100.00
8051;BME280;4068;42.158;24.732;2023-04-04T01:31:06;98241.72;;;9.99;100.00
8051;BME280;4068;42.158;24.732;2023-04-04T01:33:39;98226.22;;;9.86;100.00
8051;BME280;4068;42.158;24.732;2023-04-04T01:36:35;98250.88;;;10.05;100.00
8051;BME280;4068;42.158;24.732;2023-04-04T01:39:30;98250.13;;;9.94;100.00
8051;BME280;4068;42.158;24.732;2023-04-04T01:41:53;98250.81;;;9.96;100.00
8051;BME280;4068;42.158;24.732;2023-04-04T01:44:20;98254.69;;;10.02;100.00
8051;BME280;4068;42.158;24.732;2023-04-04T01:46:54;98250.06;;;10.04;100.00
8051;BME280;4068;42.158;24.732;2023-04-04T01:49:21;98244.75;;;10.04;100.00
8051;BME280;4068;42.158;24.732;2023-04-04T01:51:47;98250.59;;;10.08;100.00
8051;BME280;4068;42.158;24.732;2023-04-04T01:54:13;98252.25;;;10.09;100.00
8051;BME280;4068;42.158;24.732;2023-04-04T01:56:39;98248.09;;;10.06;100.00
8051;BME280;4068;42.158;24.732;2023-04-04T01:59:04;98244.03;;;10.12;100.00
8051;BME280;4068;42.158;24.732;2023-04-04T02:01:31;98247.34;;;10.14;100.00
8051;BME280;4068;42.158;24.732;2023-04-04T02:03:57;98244.91;;;10.21;100.00
8051;BME280;4068;42.158;24.732;2023-04-04T02:06:23;98218.59;;;10.01;100.00
8051;BME280;4068;42.158;24.732;2023-04-04T02:08:48;98211.63;;;10.00;100.00
8051;BME280;4068;42.158;24.732;2023-04-04T02:11:14;98240.91;;;10.16;100.00
8051;BME280;4068;42.158;24.732;2023-04-04T02:13:39;98251.69;;;10.23;100.00
8051;BME280;4068;42.158;24.732;2023-04-04T02:16:08;98214.25;;;10.00;100.00
8051;BME280;4068;42.158;24.732;2023-04-04T02:18:34;98216.00;;;10.09;100.00
8051;BME280;4068;42.158;24.732;2023-04-04T02:21:00;98243.75;;;10.23;100.00
8051;BME280;4068;42.158;24.732;2023-04-04T02:23:25;98245.97;;;10.28;100.00
8051;BME280;4068;42.158;24.732;2023-04-04T02:25:51;98248.06;;;10.24;100.00
8051;BME280;4068;42.158;24.732;2023-04-04T02:28:17;98238.63;;;10.22;100.00
8051;BME280;4068;42.158;24.732;2023-04-04T02:30:42;98231.50;;;10.22;100.00
8051;BME280;4068;42.158;24.732;2023-04-04T02:33:07;98241.50;;;10.28;100.00
8051;BME280;4068;42.158;24.732;2023-04-04T02:35:33;98234.16;;;10.22;100.00
8051;BME280;4068;42.158;24.732;2023-04-04T02:37:58;98226.22;;;10.22;100.00
8051;BME280;4068;42.158;24.732;2023-04-04T02:40:24;98233.16;;;10.23;100.00
8051;BME280;4068;42.158;24.732;2023-04-04T02:42:50;98248.78;;;10.26;100.00
8051;BME280;4068;42.158;24.732;2023-04-04T02:45:15;98236.34;;;10.27;100.00
8051;BME280;4068;42.158;24.732;2023-04-04T02:47:41;98240.81;;;10.26;100.00
8051;BME280;4068;42.158;24.732;2023-04-04T02:50:13;98239.16;;;10.25;100.00
8051;BME280;4068;42.158;24.732;2023-04-04T02:52:39;98230.50;;;10.23;100.00
8051;BME280;4068;42.158;24.732;2023-04-04T02:55:05;98221.75;;;10.23;100.00
8051;BME280;4068;42.158;24.732;2023-04-04T02:57:31;98228.41;;;10.09;100.00
8051;BME280;4068;42.158;24.732;2023-04-04T02:59:56;98202.25;;;9.88;100.00
8051;BME280;4068;42.158;24.732;2023-04-04T03:02:23;98231.44;;;9.96;100.00
8051;BME280;4068;42.158;24.732;2023-04-04T03:04:48;98238.81;;;10.02;100.00
8051;BME280;4068;42.158;24.732;2023-04-04T03:07:13;98238.94;;;10.00;100.00
8051;BME280;4068;42.158;24.732;2023-04-04T03:09:39;98206.41;;;9.90;100.00
8051;BME280;4068;42.158;24.732;2023-04-04T03:12:09;98240.84;;;10.08;100.00
8051;BME280;4068;42.158;24.732;2023-04-04T03:14:34;98234.25;;;10.12;100.00
8051;BME280;4068;42.158;24.732;2023-04-04T03:17:00;98227.28;;;10.11;100.00
8051;BME280;4068;42.158;24.732;2023-04-04T03:19:25;98237.72;;;10.13;100.00
8051;BME280;4068;42.158;24.732;2023-04-04T03:21:51;98237.41;;;10.16;100.00
8051;BME280;4068;42.158;24.732;2023-04-04T03:24:16;98216.44;;;10.05;100.00
8051;BME280;4068;42.158;24.732;2023-04-04T03:26:43;98235.81;;;10.23;100.00
8051;BME280;4068;42.158;24.732;2023-04-04T03:29:08;98197.16;;;10.12;100.00
8051;BME280;4068;42.158;24.732;2023-04-04T03:31:33;98235.44;;;10.36;100.00
8051;BME280;4068;42.158;24.732;2023-04-04T03:33:59;98225.09;;;10.25;100.00
8051;BME280;4068;42.158;24.732;2023-04-04T03:36:25;98247.72;;;10.37;100.00
8051;BME280;4068;42.158;24.732;2023-04-04T03:38:50;98261.94;;;10.36;100.00
8051;BME280;4068;42.158;24.732;2023-04-04T03:41:16;98256.28;;;10.49;100.00
8051;BME280;4068;42.158;24.732;2023-04-04T03:43:41;98262.06;;;10.52;100.00
8051;BME280;4068;42.158;24.732;2023-04-04T03:46:07;98251.94;;;10.48;100.00
8051;BME280;4068;42.158;24.732;2023-04-04T03:48:32;98269.41;;;10.59;100.00
8051;BME280;4068;42.158;24.732;2023-04-04T03:50:58;98256.13;;;10.50;100.00
8051;BME280;4068;42.158;24.732;2023-04-04T03:53:24;98274.19;;;10.55;100.00
8051;BME280;4068;42.158;24.732;2023-04-04T03:55:51;98264.56;;;10.54;100.00
8051;BME280;4068;42.158;24.732;2023-04-04T03:58:18;98265.03;;;10.49;100.00
8051;BME280;4068;42.158;24.732;2023-04-04T04:00:44;98243.53;;;10.34;100.00
8051;BME280;4068;42.158;24.732;2023-04-04T04:03:10;98280.72;;;10.43;100.00
8051;BME280;4068;42.158;24.732;2023-04-04T04:05:35;98277.72;;;10.38;100.00
8051;BME280;4068;42.158;24.732;2023-04-04T04:08:01;98280.56;;;10.44;100.00
8051;BME280;4068;42.158;24.732;2023-04-04T04:10:26;98247.56;;;10.21;100.00
8051;BME280;4068;42.158;24.732;2023-04-04T04:12:52;98247.56;;;10.21;100.00
8051;BME280;4068;42.158;24.732;2023-04-04T04:15:17;98282.31;;;10.35;100.00
8051;BME280;4068;42.158;24.732;2023-04-04T04:17:43;98275.06;;;10.38;100.00
8051;BME280;4068;42.158;24.732;2023-04-04T04:20:08;98286.16;;;10.41;100.00
8051;BME280;4068;42.158;24.732;2023-04-04T04:22:34;98291.00;;;10.46;100.00
8051;BME280;4068;42.158;24.732;2023-04-04T04:25:00;98275.50;;;10.51;100.00
8051;BME280;4068;42.158;24.732;2023-04-04T04:27:25;98251.72;;;10.41;100.00
8051;BME280;4068;42.158;24.732;2023-04-04T04:29:51;98281.31;;;10.55;100.00
8051;BME280;4068;42.158;24.732;2023-04-04T04:32:17;98293.88;;;10.52;100.00
8051;BME280;4068;42.158;24.732;2023-04-04T04:34:43;98285.63;;;10.56;100.00
8051;BME280;4068;42.158;24.732;2023-04-04T04:37:08;98290.41;;;10.52;100.00
8051;BME280;4068;42.158;24.732;2023-04-04T04:39:34;98286.63;;;10.55;100.00
8051;BME280;4068;42.158;24.732;2023-04-04T04:42:00;98253.31;;;10.52;100.00
8051;BME280;4068;42.158;24.732;2023-04-04T04:44:25;98256.63;;;10.54;100.00
8051;BME280;4068;42.158;24.732;2023-04-04T04:46:51;98257.16;;;10.58;100.00
8051;BME280;4068;42.158;24.732;2023-04-04T04:49:16;98296.72;;;10.77;100.00
8051;BME280;4068;42.158;24.732;2023-04-04T04:51:42;98303.06;;;10.84;100.00
8051;BME280;4068;42.158;24.732;2023-04-04T04:54:07;98304.06;;;10.83;100.00
8051;BME280;4068;42.158;24.732;2023-04-04T04:56:32;98300.28;;;10.86;100.00
8051;BME280;4068;42.158;24.732;2023-04-04T04:58:58;98304.06;;;10.83;100.00
8051;BME280;4068;42.158;24.732;2023-04-04T05:01:23;98296.25;;;10.82;100.00
8051;BME280;4068;42.158;24.732;2023-04-04T05:03:49;98289.28;;;10.81;100.00
8051;BME280;4068;42.158;24.732;2023-04-04T05:06:14;98292.31;;;10.86;100.00
8051;BME280;4068;42.158;24.732;2023-04-04T05:08:40;98287.88;;;10.95;100.00
8051;BME280;4068;42.158;24.732;2023-04-04T05:11:05;98265.25;;;10.82;100.00
8051;BME280;4068;42.158;24.732;2023-04-04T05:13:31;98290.31;;;10.88;100.00
8051;BME280;4068;42.158;24.732;2023-04-04T05:15:56;98288.50;;;10.88;100.00
8051;BME280;4068;42.158;24.732;2023-04-04T05:18:22;98268.22;;;10.79;100.00
8051;BME280;4068;42.158;24.732;2023-04-04T05:20:54;98285.25;;;10.95;100.00
8051;BME280;4068;42.158;24.732;2023-04-04T05:23:20;98279.81;;;11.04;100.00
8051;BME280;4068;42.158;24.732;2023-04-04T05:25:49;98281.47;;;11.05;100.00
8051;BME280;4068;42.158;24.732;2023-04-04T05:28:15;98279.69;;;11.14;100.00
8051;BME280;4068;42.158;24.732;2023-04-04T05:30:41;98282.72;;;11.19;100.00
8051;BME280;4068;42.158;24.732;2023-04-04T05:33:06;98284.25;;;11.30;100.00
8051;BME280;4068;42.158;24.732;2023-04-04T05:35:32;98287.53;;;11.24;100.00
8051;BME280;4068;42.158;24.732;2023-04-04T05:37:57;98283.09;;;11.33;100.00
8051;BME280;4068;42.158;24.732;2023-04-04T05:40:23;98282.44;;;11.31;100.00
8051;BME280;4068;42.158;24.732;2023-04-04T05:42:59;98281.25;;;11.25;100.00
8051;BME280;4068;42.158;24.732;2023-04-04T05:45:26;98259.47;;;11.13;100.00
8051;BME280;4068;42.158;24.732;2023-04-04T05:47:51;98282.06;;;11.26;100.00
8051;BME280;4068;42.158;24.732;2023-04-04T05:50:17;98297.06;;;11.35;100.00
8051;BME280;4068;42.158;24.732;2023-04-04T05:52:42;98296.03;;;11.28;100.00
8051;BME280;4068;42.158;24.732;2023-04-04T05:55:08;98304.03;;;11.36;100.00
8051;BME280;4068;42.158;24.732;2023-04-04T05:57:34;98305.94;;;11.26;100.00
8051;BME280;4068;42.158;24.732;2023-04-04T05:59:59;98274.69;;;11.11;100.00
8051;BME280;4068;42.158;24.732;2023-04-04T06:02:25;98307.88;;;11.15;100.00
8051;BME280;4068;42.158;24.732;2023-04-04T06:04:50;98312.47;;;11.05;100.00
8051;BME280;4068;42.158;24.732;2023-04-04T06:07:16;98301.16;;;10.95;100.00
8051;BME280;4068;42.158;24.732;2023-04-04T06:09:42;98316.81;;;11.06;100.00
8051;BME280;4068;42.158;24.732;2023-04-04T06:12:08;98320.66;;;11.12;100.00
8051;BME280;4068;42.158;24.732;2023-04-04T06:14:36;98316.84;;;11.14;100.00
8051;BME280;4068;42.158;24.732;2023-04-04T06:17:02;98313.19;;;11.15;100.00
8051;BME280;4068;42.158;24.732;2023-04-04T06:19:28;98318.78;;;11.30;100.00
8051;BME280;4068;42.158;24.732;2023-04-04T06:21:53;98306.09;;;11.24;100.00
8051;BME280;4068;42.158;24.732;2023-04-04T06:24:19;98308.00;;;11.40;100.00
8051;BME280;4068;42.158;24.732;2023-04-04T06:26:44;98313.53;;;11.47;100.00
8051;BME280;4068;42.158;24.732;2023-04-04T06:29:10;98309.19;;;11.46;100.00
8051;BME280;4068;42.158;24.732;2023-04-04T06:31:35;98313.25;;;11.58;100.00
8051;BME280;4068;42.158;24.732;2023-04-04T06:34:01;98313.94;;;11.60;100.00
8051;BME280;4068;42.158;24.732;2023-04-04T06:36:27;98297.16;;;11.60;100.00
8051;BME280;4068;42.158;24.732;2023-04-04T06:38:52;98320.31;;;11.92;100.00
8051;BME280;4068;42.158;24.732;2023-04-04T06:41:18;98325.34;;;11.95;100.00
8051;BME280;4068;42.158;24.732;2023-04-04T06:43:43;98290.31;;;11.57;100.00
8051;BME280;4068;42.158;24.732;2023-04-04T06:46:11;98306.81;;;11.77;100.00
8051;BME280;4068;42.158;24.732;2023-04-04T06:48:36;98318.47;;;11.76;100.00
8051;BME280;4068;42.158;24.732;2023-04-04T06:51:05;98290.72;;;11.70;100.00
8051;BME280;4068;42.158;24.732;2023-04-04T06:53:31;98311.97;;;11.70;100.00
8051;BME280;4068;42.158;24.732;2023-04-04T06:55:57;98309.19;;;11.80;100.00
8051;BME280;4068;42.158;24.732;2023-04-04T06:58:23;98295.19;;;11.70;100.00
8051;BME280;4068;42.158;24.732;2023-04-04T07:00:49;98312.75;;;11.97;100.00
8051;BME280;4068;42.158;24.732;2023-04-04T07:03:14;98293.63;;;11.94;100.00
8051;BME280;4068;42.158;24.732;2023-04-04T07:05:40;98296.31;;;12.02;100.00
8051;BME280;4068;42.158;24.732;2023-04-04T07:08:06;98315.28;;;12.23;100.00
8051;BME280;4068;42.158;24.732;2023-04-04T07:10:31;98324.56;;;12.44;100.00
8051;BME280;4068;42.158;24.732;2023-04-04T07:12:57;98319.59;;;12.41;100.00
8051;BME280;4068;42.158;24.732;2023-04-04T07:15:22;98320.44;;;12.50;100.00
8051;BME280;4068;42.158;24.732;2023-04-04T07:17:48;98324.28;;;12.47;100.00
8051;BME280;4068;42.158;24.732;2023-04-04T07:20:13;98327.09;;;12.78;100.00
8051;BME280;4068;42.158;24.732;2023-04-04T07:22:40;98331.22;;;13.06;100.00
8051;BME280;4068;42.158;24.732;2023-04-04T07:25:07;98327.56;;;12.99;100.00
8051;BME280;4068;42.158;24.732;2023-04-04T07:27:32;98334.53;;;13.08;100.00
8051;BME280;4068;42.158;24.732;2023-04-04T07:29:58;98348.50;;;13.02;100.00
8051;BME280;4068;42.158;24.732;2023-04-04T07:32:23;98342.38;;;12.76;100.00
8051;BME280;4068;42.158;24.732;2023-04-04T07:34:49;98344.03;;;12.77;100.00
8051;BME280;4068;42.158;24.732;2023-04-04T07:37:15;98351.69;;;12.72;100.00
8051;BME280;4068;42.158;24.732;2023-04-04T07:39:40;98340.88;;;12.41;100.00
8051;BME280;4068;42.158;24.732;2023-04-04T07:42:06;98342.00;;;12.22;100.00
8051;BME280;4068;42.158;24.732;2023-04-04T07:44:31;98344.31;;;12.17;100.00
8051;BME280;4068;42.158;24.732;2023-04-04T07:46:57;98346.97;;;12.08;100.00
8051;BME280;4068;42.158;24.732;2023-04-04T07:49:22;98353.44;;;12.06;100.00
8051;BME280;4068;42.158;24.732;2023-04-04T07:51:48;98325.00;;;11.98;100.00
8051;BME280;4068;42.158;24.732;2023-04-04T07:54:14;98348.47;;;12.19;100.00
8051;BME280;4068;42.158;24.732;2023-04-04T07:56:39;98318.25;;;12.20;100.00
8051;BME280;4068;42.158;24.732;2023-04-04T07:59:05;98344.03;;;12.36;100.00
8051;BME280;4068;42.158;24.732;2023-04-04T08:01:31;98329.56;;;12.31;100.00
8051;BME280;4068;42.158;24.732;2023-04-04T08:03:56;98350.69;;;12.49;100.00
8051;BME280;4068;42.158;24.732;2023-04-04T08:06:22;98354.00;;;12.51;100.00
8051;BME280;4068;42.158;24.732;2023-04-04T08:08:47;98349.03;;;12.56;100.00
8051;BME280;4068;42.158;24.732;2023-04-04T08:11:13;98332.25;;;12.64;100.00
8051;BME280;4068;42.158;24.732;2023-04-04T08:13:39;98351.53;;;12.90;100.00
8051;BME280;4068;42.158;24.732;2023-04-04T08:16:05;98350.00;;;13.12;100.00
8051;BME280;4068;42.158;24.732;2023-04-04T08:18:30;98344.44;;;13.55;100.00
8051;BME280;4068;42.158;24.732;2023-04-04T08:20:56;98355.19;;;14.10;100.00
8051;BME280;4068;42.158;24.732;2023-04-04T08:23:22;98366.78;;;14.48;100.00
8051;BME280;4068;42.158;24.732;2023-04-04T08:25:47;98367.91;;;14.54;100.00
8051;BME280;4068;42.158;24.732;2023-04-04T08:28:13;98370.22;;;14.57;100.00
8051;BME280;4068;42.158;24.732;2023-04-04T08:30:39;98363.19;;;14.33;100.00
8051;BME280;4068;42.158;24.732;2023-04-04T08:33:05;98363.00;;;14.11;100.00
8051;BME280;4068;42.158;24.732;2023-04-04T08:35:31;98360.34;;;13.72;100.00
8051;BME280;4068;42.158;24.732;2023-04-04T08:37:56;98370.28;;;13.38;100.00
8051;BME280;4068;42.158;24.732;2023-04-04T08:40:22;98367.28;;;13.25;100.00
8051;BME280;4068;42.158;24.732;2023-04-04T08:42:49;98359.97;;;13.19;100.00
8051;BME280;4068;42.158;24.732;2023-04-04T08:45:20;98363.75;;;13.49;100.00
8051;BME280;4068;42.158;24.732;2023-04-04T08:47:47;98366.19;;;13.75;100.00
8051;BME280;4068;42.158;24.732;2023-04-04T08:50:14;98367.53;;;14.03;100.00
8051;BME280;4068;42.158;24.732;2023-04-04T08:52:40;98372.94;;;14.18;100.00
8051;BME280;4068;42.158;24.732;2023-04-04T08:55:08;98378.97;;;14.43;100.00
8051;BME280;4068;42.158;24.732;2023-04-04T08:57:34;98380.91;;;14.26;100.00
8051;BME280;4068;42.158;24.732;2023-04-04T09:00:00;98380.59;;;14.21;100.00
8051;BME280;4068;42.158;24.732;2023-04-04T09:02:33;98377.84;;;14.06;100.00
8051;BME280;4068;42.158;24.732;2023-04-04T09:05:01;98363.81;;;13.80;100.00
8051;BME280;4068;42.158;24.732;2023-04-04T09:07:27;98387.91;;;13.95;100.00
8051;BME280;4068;42.158;24.732;2023-04-04T09:09:53;98364.88;;;14.03;100.00
8051;BME280;4068;42.158;24.732;2023-04-04T09:12:20;98380.72;;;14.27;100.00
8051;BME280;4068;42.158;24.732;2023-04-04T09:14:47;98363.19;;;14.10;100.00
8051;BME280;4068;42.158;24.732;2023-04-04T09:17:14;98391.38;;;13.96;100.00
8051;BME280;4068;42.158;24.732;2023-04-04T09:19:40;98362.97;;;13.80;100.00
8051;BME280;4068;42.158;24.732;2023-04-04T09:22:06;98383.59;;;13.86;100.00
8051;BME280;4068;42.158;24.732;2023-04-04T09:24:42;98381.50;;;14.05;100.00
8051;BME280;4068;42.158;24.732;2023-04-04T09:27:09;98383.66;;;14.09;100.00
8051;BME280;4068;42.158;24.732;2023-04-04T09:29:39;98392.47;;;14.18;100.00
8051;BME280;4068;42.158;24.732;2023-04-04T09:32:09;98382.94;;;13.92;100.00
8051;BME280;4068;42.158;24.732;2023-04-04T09:34:35;98391.50;;;14.11;100.00
8051;BME280;4068;42.158;24.732;2023-04-04T09:37:03;98401.88;;;13.97;100.00
8051;BME280;4068;42.158;24.732;2023-04-04T09:39:30;98403.25;;;13.85;100.00
8051;BME280;4068;42.158;24.732;2023-04-04T09:41:57;98400.56;;;13.85;100.00
8051;BME280;4068;42.158;24.732;2023-04-04T09:44:23;98398.06;;;13.92;100.00
8051;BME280;4068;42.158;24.732;2023-04-04T09:46:48;98405.50;;;14.05;100.00
8051;BME280;4068;42.158;24.732;2023-04-04T09:49:20;98391.16;;;14.14;100.00
8051;BME280;4068;42.158;24.732;2023-04-04T09:51:55;98402.06;;;14.27;100.00
8051;BME280;4068;42.158;24.732;2023-04-04T09:54:21;98399.34;;;14.36;100.00
8051;BME280;4068;42.158;24.732;2023-04-04T09:56:48;98400.06;;;14.29;100.00
8051;BME280;4068;42.158;24.732;2023-04-04T09:59:14;98400.00;;;14.38;100.00
8051;BME280;4068;42.158;24.732;2023-04-04T10:01:39;98401.84;;;14.37;100.00
8051;BME280;4068;42.158;24.732;2023-04-04T10:04:05;98391.44;;;14.19;100.00
8051;BME280;4068;42.158;24.732;2023-04-04T10:06:35;98396.38;;;14.30;100.00
8051;BME280;4068;42.158;24.732;2023-04-04T10:09:01;98393.81;;;14.14;100.00
8051;BME280;4068;42.158;24.732;2023-04-04T10:11:32;98397.03;;;14.01;100.00
8051;BME280;4068;42.158;24.732;2023-04-04T10:13:59;98396.50;;;14.06;100.00
8051;BME280;4068;42.158;24.732;2023-04-04T10:16:25;98391.16;;;14.14;100.00
8051;BME280;4068;42.158;24.732;2023-04-04T10:18:51;98367.94;;;14.23;100.00
8051;BME280;4068;42.158;24.732;2023-04-04T10:21:18;98389.88;;;14.56;100.00
8051;BME280;4068;42.158;24.732;2023-04-04T10:23:47;98395.53;;;14.61;100.00
8051;BME280;4068;42.158;24.732;2023-04-04T10:26:13;98379.59;;;14.76;100.00
8051;BME280;4068;42.158;24.732;2023-04-04T10:28:39;98389.34;;;15.07;100.00
8051;BME280;4068;42.158;24.732;2023-04-04T10:33:51;98385.53;;;15.54;100.00
8051;BME280;4068;42.158;24.732;2023-04-04T10:36:28;98382.78;;;15.63;100.00
8051;BME280;4068;42.158;24.732;2023-04-04T10:39:03;98384.16;;;16.40;100.00
8051;BME280;4068;42.158;24.732;2023-04-04T10:41:34;98357.75;;;16.73;100.00
8051;BME280;4068;42.158;24.732;2023-04-04T10:44:10;98383.03;;;17.42;100.00
8051;BME280;4068;42.158;24.732;2023-04-04T10:46:40;98351.47;;;17.80;98.35
8051;BME280;4068;42.158;24.732;2023-04-04T10:49:07;98376.97;;;18.72;91.77
8051;BME280;4068;42.158;24.732;2023-04-04T10:51:34;98365.44;;;19.19;88.62
8051;BME280;4068;42.158;24.732;2023-04-04T10:54:00;98365.81;;;19.49;87.83
8051;BME280;4068;42.158;24.732;2023-04-04T10:56:27;98357.16;;;19.40;88.88
8051;BME280;4068;42.158;24.732;2023-04-04T10:59:11;98365.97;;;19.81;87.87
8051;BME280;4068;42.158;24.732;2023-04-04T11:01:59;98354.78;;;20.29;82.92
8051;BME280;4068;42.158;24.732;2023-04-04T11:04:32;98356.56;;;20.04;83.47
8051;BME280;4068;42.158;24.732;2023-04-04T11:07:12;98351.94;;;20.17;79.16
8051;BME280;4068;42.158;24.732;2023-04-04T11:09:49;98341.41;;;20.16;77.06
8051;BME280;4068;42.158;24.732;2023-04-04T11:12:15;98350.56;;;20.02;78.11
8051;BME280;4068;42.158;24.732;2023-04-04T11:15:12;98351.66;;;19.87;79.87
8051;BME280;4068;42.158;24.732;2023-04-04T11:20:21;98345.66;;;19.92;78.51
8051;BME280;4068;42.158;24.732;2023-04-04T11:25:40;98340.75;;;19.69;79.76
8051;BME280;4068;42.158;24.732;2023-04-04T11:28:24;98322.47;;;19.12;80.35
8051;BME280;4068;42.158;24.732;2023-04-04T11:34:09;98344.16;;;17.95;82.59
8051;BME280;4068;42.158;24.732;2023-04-04T11:39:09;98339.59;;;17.19;85.50
8051;BME280;4068;42.158;24.732;2023-04-04T11:41:47;98335.84;;;17.48;84.77
8051;BME280;4068;42.158;24.732;2023-04-04T11:44:16;98336.16;;;17.60;84.37
8051;BME280;4068;42.158;24.732;2023-04-04T11:46:42;98336.00;;;17.40;86.26
8051;BME280;4068;42.158;24.732;2023-04-04T11:49:08;98330.09;;;17.51;87.28
8051;BME280;4068;42.158;24.732;2023-04-04T11:51:34;98330.41;;;17.70;86.28
8051;BME280;4068;42.158;24.732;2023-04-04T11:54:01;98333.13;;;17.76;84.88
8051;BME280;4068;42.158;24.732;2023-04-04T11:56:26;98333.31;;;17.75;84.36
8051;BME280;4068;42.158;24.732;2023-04-04T11:58:52;98337.25;;;17.79;84.15
8051;BME280;4068;42.158;24.732;2023-04-04T12:01:18;98342.06;;;17.49;84.42
8051;BME280;4068;42.158;24.732;2023-04-04T12:03:44;98329.41;;;17.36;85.66
8051;BME280;4068;42.158;24.732;2023-04-04T12:06:10;98339.94;;;17.37;86.92
8051;BME280;4068;42.158;24.732;2023-04-04T12:08:36;98338.28;;;17.36;84.69
8051;BME280;4068;42.158;24.732;2023-04-04T12:11:06;98335.09;;;17.61;83.98
8051;BME280;4068;42.158;24.732;2023-04-04T12:13:41;98310.69;;;17.42;83.82
8051;BME280;4068;42.158;24.732;2023-04-04T12:16:07;98339.94;;;17.44;83.02
8051;BME280;4068;42.158;24.732;2023-04-04T12:18:33;98332.09;;;17.07;85.32
8051;BME280;4068;42.158;24.732;2023-04-04T12:20:59;98336.00;;;17.05;85.16
8051;BME280;4068;42.158;24.732;2023-04-04T12:23:24;98327.50;;;17.01;85.49
8051;BME280;4068;42.158;24.732;2023-04-04T12:25:51;98335.59;;;17.08;85.36
8051;BME280;4068;42.158;24.732;2023-04-04T12:28:19;98338.09;;;17.10;86.40
8051;BME280;4068;42.158;24.732;2023-04-04T12:30:45;98333.03;;;16.93;89.27
8051;BME280;4068;42.158;24.732;2023-04-04T12:33:11;98327.53;;;16.80;94.52
8051;BME280;4068;42.158;24.732;2023-04-04T12:35:36;98329.06;;;16.67;96.83
8051;BME280;4068;42.158;24.732;2023-04-04T12:38:03;98322.25;;;16.43;96.90
8051;BME280;4068;42.158;24.732;2023-04-04T12:40:32;98321.72;;;16.11;100.00
8051;BME280;4068;42.158;24.732;2023-04-04T12:43:02;98335.16;;;15.81;100.00
8051;BME280;4068;42.158;24.732;2023-04-04T12:45:28;98336.34;;;15.79;100.00
8051;BME280;4068;42.158;24.732;2023-04-04T12:47:54;98334.78;;;15.40;100.00
8051;BME280;4068;42.158;24.732;2023-04-04T12:50:22;98323.28;;;15.09;100.00
8051;BME280;4068;42.158;24.732;2023-04-04T12:52:51;98344.28;;;14.89;100.00
8051;BME280;4068;42.158;24.732;2023-04-04T12:55:21;98345.09;;;14.75;100.00
8051;BME280;4068;42.158;24.732;2023-04-04T12:57:47;98357.59;;;14.51;100.00
8051;BME280;4068;42.158;24.732;2023-04-04T13:00:13;98372.59;;;14.21;100.00
8051;BME280;4068;42.158;24.732;2023-04-04T13:02:44;98383.59;;;13.86;100.00
8051;BME280;4068;42.158;24.732;2023-04-04T13:05:10;98383.06;;;13.51;100.00
8051;BME280;4068;42.158;24.732;2023-04-04T13:07:37;98406.53;;;13.39;100.00
8051;BME280;4068;42.158;24.732;2023-04-04T13:10:09;98409.38;;;13.13;100.00
8051;BME280;4068;42.158;24.732;2023-04-04T13:15:21;98420.34;;;12.60;100.00
8051;BME280;4068;42.158;24.732;2023-04-04T13:17:48;98420.53;;;12.08;100.00
8051;BME280;4068;42.158;24.732;2023-04-04T13:20:16;98428.75;;;11.62;100.00